Terminal Aerodrome Forecast
Issued by NWS Raleigh/Durham, NC

Home | Current Version | Previous Version | Text Only | Print | Product List | Glossary On
Versions: 1 2 3 4 5 6 7 8 9 10 11 12 13 14 15 16 17 18 19 20 21 22 23 24 25 26 27 28 29 30 31 32 33 34 35 36 37 38 39 40 41 42 43 44 45 46 47 48 49 50
000
FTUS42 KRAH 261739
TAFFAY
TAF
KFAY 261739Z 2618/2718 35010KT P6SM OVC015
      TEMPO 2618/2621 SCT012 OVC025
     FM262100 31006KT P6SM BKN025 BKN050
     FM270700 VRB04KT P6SM SCT025 BKN040 OVC070
     FM271100 VRB04KT 6SM -RA BR BKN008 OVC050
     FM271700 31010G18KT P6SM BKN040=

USA.gov is the U.S. government's official web portal to all federal, state and local government web resources and services.